Time;durP1;ratioP1;P1;durP2;ratioP2;P2;SDS_P1;SDS_P2;PMS_P1;PMS_P2;Temp;Humidity;BMP_temperature;BMP_pressure;BME280_temperature;BME280_humidity;BME280_pressure;Samples;Min_cycle;Max_cycle;Signal;HPM_P1;HPM_P2
2023/11/19 00:00:04;;;;;;;18.15;2.70;;;;;;;;;;5040090;28;20031;-36
2023/11/19 00:02:31;;;;;;;21.52;3.55;;;;;;;;;;5042219;28;20033;-36
2023/11/19 00:05:01;;;;;;;17.27;3.25;;;;;;;;;;5040209;28;20574;-36
2023/11/19 00:07:28;;;;;;;20.30;3.47;;;;;;;;;;5042212;28;20031;-36
2023/11/19 00:09:55;;;;;;;17.98;3.40;;;;;;;;;;5040033;28;20124;-36
2023/11/19 00:12:22;;;;;;;23.70;3.30;;;;;;;;;;5039354;28;20045;-35
2023/11/19 00:14:49;;;;;;;13.70;3.20;;;;;;;;;;5037535;28;20029;-35
2023/11/19 00:17:16;;;;;;;21.88;3.17;;;;;;;;;;5022331;28;20041;-35
2023/11/19 00:19:43;;;;;;;23.58;3.50;;;;;;;;;;5038654;28;20061;-34
2023/11/19 00:22:10;;;;;;;18.17;3.90;;;;;;;;;;5022602;28;20396;-35
2023/11/19 00:24:37;;;;;;;22.55;4.15;;;;;;;;;;5041297;28;20123;-35
2023/11/19 00:27:04;;;;;;;17.75;3.92;;;;;;;;;;5040692;28;20033;-34
2023/11/19 00:29:31;;;;;;;21.33;4.00;;;;;;;;;;5036650;28;20025;-35
2023/11/19 00:31:58;;;;;;;19.90;4.28;;;;;;;;;;5041327;28;20058;-34
2023/11/19 00:34:25;;;;;;;25.60;4.53;;;;;;;;;;5038968;28;20037;-35
2023/11/19 00:36:52;;;;;;;17.67;3.78;;;;;;;;;;5040056;28;20087;-35
2023/11/19 00:39:21;;;;;;;16.25;4.15;;;;;;;;;;5041190;28;20028;-36
2023/11/19 00:41:48;;;;;;;17.00;3.97;;;;;;;;;;5042013;28;20041;-35
2023/11/19 00:44:15;;;;;;;19.73;4.70;;;;;;;;;;5037289;28;20107;-35
2023/11/19 00:46:42;;;;;;;18.75;4.05;;;;;;;;;;5040632;28;20581;-34
2023/11/19 00:49:11;;;;;;;21.02;5.15;;;;;;;;;;5037539;28;20470;-35
2023/11/19 00:51:38;;;;;;;23.42;4.97;;;;;;;;;;5040237;28;20581;-36
2023/11/19 00:54:05;;;;;;;22.67;4.88;;;;;;;;;;5039400;28;20025;-34
2023/11/19 00:56:32;;;;;;;19.67;4.78;;;;;;;;;;5041366;28;20025;-35
2023/11/19 00:59:00;;;;;;;18.45;5.30;;;;;;;;;;5038889;28;20032;-35
2023/11/19 01:01:27;;;;;;;19.33;4.70;;;;;;;;;;5039411;28;20388;-35
2023/11/19 01:03:54;;;;;;;16.02;5.20;;;;;;;;;;5017955;28;20087;-36
2023/11/19 01:06:31;;;;;;;19.05;5.45;;;;;;;;;;5041447;28;20391;-35
2023/11/19 01:08:58;;;;;;;17.95;5.15;;;;;;;;;;5046399;28;20025;-35
2023/11/19 01:11:25;;;;;;;23.33;5.53;;;;;;;;;;5050722;28;20438;-35
2023/11/19 01:13:53;;;;;;;15.57;5.63;;;;;;;;;;5039352;28;20029;-36
2023/11/19 01:16:21;;;;;;;18.58;6.65;;;;;;;;;;5020201;28;20104;-37
2023/11/19 01:18:48;;;;;;;21.55;5.72;;;;;;;;;;5050404;28;20069;-36
2023/11/19 01:21:15;;;;;;;18.30;6.05;;;;;;;;;;5050336;28;20056;-37
2023/11/19 01:23:45;;;;;;;20.58;5.95;;;;;;;;;;5050136;28;20021;-37
2023/11/19 01:26:13;;;;;;;19.25;5.63;;;;;;;;;;5049024;28;20036;-34
2023/11/19 01:28:42;;;;;;;19.90;5.80;;;;;;;;;;5048274;28;20112;-34
2023/11/19 01:31:09;;;;;;;18.25;5.53;;;;;;;;;;5049646;28;20083;-34
2023/11/19 01:33:41;;;;;;;15.60;5.65;;;;;;;;;;5047895;28;20471;-33
2023/11/19 01:36:08;;;;;;;19.47;5.60;;;;;;;;;;5030535;28;20116;-34
2023/11/19 01:38:36;;;;;;;18.02;5.53;;;;;;;;;;5041472;28;20029;-34
2023/11/19 01:41:03;;;;;;;15.77;5.60;;;;;;;;;;5034774;28;20132;-34
2023/11/19 01:43:37;;;;;;;14.88;5.50;;;;;;;;;;5047118;28;20538;-36
2023/11/19 01:46:05;;;;;;;17.02;5.22;;;;;;;;;;5048533;28;20450;-35
2023/11/19 01:48:34;;;;;;;12.75;4.60;;;;;;;;;;5047041;28;20453;-35
2023/11/19 01:51:02;;;;;;;17.33;4.97;;;;;;;;;;5041395;28;20037;-35
2023/11/19 01:53:30;;;;;;;13.25;4.78;;;;;;;;;;5044193;28;20407;-36
2023/11/19 01:55:57;;;;;;;13.40;5.10;;;;;;;;;;5040512;28;20037;-36
2023/11/19 01:58:25;;;;;;;19.85;5.35;;;;;;;;;;5030691;28;20044;-37
2023/11/19 02:00:52;;;;;;;17.88;5.38;;;;;;;;;;5036417;28;20394;-37
2023/11/19 02:03:19;;;;;;;16.30;5.13;;;;;;;;;;5050298;28;20044;-37
2023/11/19 02:05:49;;;;;;;13.45;4.82;;;;;;;;;;5049027;28;20033;-36
2023/11/19 02:08:16;;;;;;;16.83;5.13;;;;;;;;;;5049365;28;20056;-36
2023/11/19 02:10:43;;;;;;;14.70;4.80;;;;;;;;;;5038822;28;20033;-36
2023/11/19 02:13:10;;;;;;;22.60;4.65;;;;;;;;;;5030094;28;20078;-36
2023/11/19 02:15:37;;;;;;;11.95;4.32;;;;;;;;;;5047760;28;20033;-36
2023/11/19 02:18:22;;;;;;;11.18;4.57;;;;;;;;;;5053557;28;20052;-35
2023/11/19 02:20:50;;;;;;;11.18;4.68;;;;;;;;;;5047008;28;20536;-37
2023/11/19 02:23:18;;;;;;;11.80;4.78;;;;;;;;;;5053656;28;20050;-36
2023/11/19 02:25:49;;;;;;;12.18;4.22;;;;;;;;;;5041510;28;20037;-36
2023/11/19 02:28:16;;;;;;;11.75;3.90;;;;;;;;;;5041016;28;20186;-36
2023/11/19 02:30:45;;;;;;;14.73;4.22;;;;;;;;;;5041027;28;20042;-36
2023/11/19 02:33:12;;;;;;;12.18;4.15;;;;;;;;;;5047505;28;20617;-36
2023/11/19 02:35:40;;;;;;;22.58;4.38;;;;;;;;;;5035084;28;20115;-36
2023/11/19 02:38:08;;;;;;;14.80;4.35;;;;;;;;;;5036985;28;20155;-34
2023/11/19 02:40:35;;;;;;;13.45;4.25;;;;;;;;;;5046878;28;20040;-34
2023/11/19 02:43:04;;;;;;;13.77;4.63;;;;;;;;;;5033698;28;20518;-34
2023/11/19 02:45:31;;;;;;;13.98;4.00;;;;;;;;;;5037186;28;20032;-38
2023/11/19 02:48:01;;;;;;;17.88;3.83;;;;;;;;;;5043357;28;20048;-37
2023/11/19 02:50:28;;;;;;;11.25;3.97;;;;;;;;;;5049519;28;20479;-37
2023/11/19 02:52:57;;;;;;;19.60;3.92;;;;;;;;;;5044602;28;20025;-36
2023/11/19 02:55:24;;;;;;;17.95;4.00;;;;;;;;;;5052030;28;20417;-37
2023/11/19 02:57:53;;;;;;;26.55;4.65;;;;;;;;;;5041405;28;20033;-38
2023/11/19 03:00:24;;;;;;;11.02;4.00;;;;;;;;;;5041932;28;20386;-37
2023/11/19 03:02:59;;;;;;;8.73;3.40;;;;;;;;;;5046164;28;20034;-37
2023/11/19 03:05:26;;;;;;;10.13;3.42;;;;;;;;;;5033578;28;20038;-37
2023/11/19 03:07:53;;;;;;;8.88;3.45;;;;;;;;;;5052819;28;20031;-37
2023/11/19 03:10:20;;;;;;;8.55;3.78;;;;;;;;;;5041853;28;20045;-38
2023/11/19 03:12:47;;;;;;;13.52;3.35;;;;;;;;;;5048001;28;20052;-37
2023/11/19 03:15:14;;;;;;;7.30;3.50;;;;;;;;;;5034690;28;20033;-36
2023/11/19 03:17:42;;;;;;;10.55;3.28;;;;;;;;;;5033145;28;20043;-37
2023/11/19 03:20:10;;;;;;;8.02;3.20;;;;;;;;;;5038041;28;20032;-38
2023/11/19 03:22:38;;;;;;;7.88;3.00;;;;;;;;;;5039852;28;20103;-37
2023/11/19 03:25:08;;;;;;;8.05;3.00;;;;;;;;;;5015524;28;20167;-37
2023/11/19 03:27:39;;;;;;;9.40;3.10;;;;;;;;;;5038807;28;20033;-37
2023/11/19 03:30:06;;;;;;;6.25;2.42;;;;;;;;;;5041660;28;20503;-36
2023/11/19 03:32:35;;;;;;;12.70;2.97;;;;;;;;;;5039359;28;20484;-35
2023/11/19 03:35:04;;;;;;;8.40;2.47;;;;;;;;;;5041242;28;20125;-36
2023/11/19 03:37:32;;;;;;;6.50;2.60;;;;;;;;;;5040519;28;20513;-36
2023/11/19 03:39:59;;;;;;;7.75;2.92;;;;;;;;;;5041888;28;20029;-37
2023/11/19 03:42:33;;;;;;;11.65;3.15;;;;;;;;;;5041213;28;20040;-35
2023/11/19 03:45:00;;;;;;;9.68;3.10;;;;;;;;;;5045621;28;20041;-35
2023/11/19 03:47:27;;;;;;;12.18;2.88;;;;;;;;;;5043483;28;20151;-32
2023/11/19 03:50:15;;;;;;;8.15;2.55;;;;;;;;;;5041014;28;20076;-34
2023/11/19 03:52:43;;;;;;;8.45;2.30;;;;;;;;;;5043172;28;20064;-35
2023/11/19 03:55:10;;;;;;;7.38;2.45;;;;;;;;;;5042421;28;20029;-35
2023/11/19 03:57:37;;;;;;;10.10;2.83;;;;;;;;;;5040773;28;20407;-33
2023/11/19 04:00:10;;;;;;;5.80;2.47;;;;;;;;;;5042085;28;20157;-34
2023/11/19 04:02:37;;;;;;;6.20;2.17;;;;;;;;;;5037105;28;20387;-32
2023/11/19 04:05:07;;;;;;;10.38;2.38;;;;;;;;;;5041879;28;20435;-34
2023/11/19 04:07:34;;;;;;;4.68;2.28;;;;;;;;;;5040247;28;20143;-35
2023/11/19 04:10:01;;;;;;;6.22;2.33;;;;;;;;;;5040679;28;20029;-33
2023/11/19 04:12:28;;;;;;;6.15;2.38;;;;;;;;;;5041290;28;20068;-35
2023/11/19 04:14:56;;;;;;;7.90;2.22;;;;;;;;;;5040196;28;20028;-35
2023/11/19 04:17:23;;;;;;;6.93;1.77;;;;;;;;;;5041885;28;20056;-35
2023/11/19 04:19:50;;;;;;;7.00;2.67;;;;;;;;;;5022009;28;20432;-33
2023/11/19 04:22:17;;;;;;;9.18;2.10;;;;;;;;;;5042569;28;20482;-34
2023/11/19 04:24:45;;;;;;;7.97;1.88;;;;;;;;;;5023528;28;20103;-34
2023/11/19 04:27:12;;;;;;;6.68;1.70;;;;;;;;;;5043391;28;20033;-33
2023/11/19 04:29:39;;;;;;;5.07;2.00;;;;;;;;;;5039768;28;20032;-34
2023/11/19 04:32:07;;;;;;;9.65;1.75;;;;;;;;;;5041311;28;20120;-35
2023/11/19 04:34:34;;;;;;;8.05;1.95;;;;;;;;;;5040051;28;20514;-34
2023/11/19 04:37:02;;;;;;;3.05;1.35;;;;;;;;;;5042027;28;20029;-33
2023/11/19 04:39:29;;;;;;;4.88;1.92;;;;;;;;;;5041024;28;20509;-34
2023/11/19 04:41:56;;;;;;;7.40;1.60;;;;;;;;;;5040250;28;20025;-33
2023/11/19 04:44:23;;;;;;;4.68;1.70;;;;;;;;;;5025026;28;20041;-34
2023/11/19 04:46:49;;;;;;;5.55;1.92;;;;;;;;;;5042755;28;20095;-34
2023/11/19 04:49:18;;;;;;;6.05;1.70;;;;;;;;;;5039977;28;20067;-32
2023/11/19 04:51:48;;;;;;;8.50;1.80;;;;;;;;;;5041182;28;20522;-35
2023/11/19 04:54:15;;;;;;;7.45;1.90;;;;;;;;;;5037067;28;20068;-32
2023/11/19 04:56:47;;;;;;;4.43;1.63;;;;;;;;;;5041650;28;20087;-34
2023/11/19 04:59:14;;;;;;;4.15;1.77;;;;;;;;;;5041976;28;20072;-34
2023/11/19 05:01:41;;;;;;;5.78;1.83;;;;;;;;;;5040061;28;20029;-35
2023/11/19 05:04:08;;;;;;;5.82;1.58;;;;;;;;;;5040603;28;20029;-34
2023/11/19 05:06:35;;;;;;;4.30;1.58;;;;;;;;;;5041916;28;20021;-34
2023/11/19 05:09:09;;;;;;;4.40;1.27;;;;;;;;;;5040284;28;20025;-35
2023/11/19 05:11:36;;;;;;;11.82;1.83;;;;;;;;;;5039473;28;20475;-35
2023/11/19 05:14:06;;;;;;;4.45;1.65;;;;;;;;;;5042557;28;20029;-36
2023/11/19 05:16:33;;;;;;;3.67;1.40;;;;;;;;;;5039610;28;20037;-35
2023/11/19 05:19:00;;;;;;;2.20;1.10;;;;;;;;;;5024973;28;20026;-33
2023/11/19 05:21:27;;;;;;;3.88;1.50;;;;;;;;;;5024645;28;20025;-34
2023/11/19 05:23:54;;;;;;;5.95;1.73;;;;;;;;;;5039703;28;20041;-35
2023/11/19 05:26:22;;;;;;;4.07;1.35;;;;;;;;;;5039981;28;20454;-38
2023/11/19 05:28:49;;;;;;;6.90;1.73;;;;;;;;;;5040315;28;20482;-34
2023/11/19 05:31:17;;;;;;;7.30;1.70;;;;;;;;;;5041612;28;20459;-36
2023/11/19 05:33:44;;;;;;;5.82;1.23;;;;;;;;;;5039925;28;20040;-36
2023/11/19 05:36:12;;;;;;;4.20;1.15;;;;;;;;;;5040137;28;20033;-36
2023/11/19 05:38:39;;;;;;;7.97;1.60;;;;;;;;;;5041420;28;20025;-36
2023/11/19 05:41:06;;;;;;;4.82;1.30;;;;;;;;;;5040589;28;20028;-33
2023/11/19 05:43:34;;;;;;;6.20;1.23;;;;;;;;;;5039656;28;20394;-35
2023/11/19 05:46:04;;;;;;;3.78;1.08;;;;;;;;;;5039669;28;20028;-34
2023/11/19 05:48:31;;;;;;;6.07;1.08;;;;;;;;;;5039643;28;20569;-34
2023/11/19 05:50:58;;;;;;;4.65;1.52;;;;;;;;;;5046174;28;20384;-33
2023/11/19 05:53:25;;;;;;;8.07;1.83;;;;;;;;;;5044471;28;20390;-33
2023/11/19 05:55:55;;;;;;;6.68;1.70;;;;;;;;;;5044980;28;20033;-33
2023/11/19 05:58:26;;;;;;;5.47;1.35;;;;;;;;;;5043603;28;20041;-32
2023/11/19 06:00:53;;;;;;;10.73;1.48;;;;;;;;;;5039058;28;20032;-33
2023/11/19 06:03:21;;;;;;;5.03;1.50;;;;;;;;;;5045245;28;20055;-32
2023/11/19 06:05:48;;;;;;;12.90;1.77;;;;;;;;;;5044144;28;20042;-32
2023/11/19 06:08:16;;;;;;;6.82;1.60;;;;;;;;;;5043167;28;20126;-33
2023/11/19 06:10:45;;;;;;;4.20;1.52;;;;;;;;;;5044663;28;20045;-32
2023/11/19 06:13:14;;;;;;;6.60;1.60;;;;;;;;;;5044851;28;20041;-32
2023/11/19 06:15:42;;;;;;;4.85;1.63;;;;;;;;;;5043147;28;20025;-33
2023/11/19 06:18:11;;;;;;;3.55;1.40;;;;;;;;;;5043717;28;20037;-32
2023/11/19 06:20:38;;;;;;;5.03;1.95;;;;;;;;;;5044822;28;20616;-32
2023/11/19 06:23:05;;;;;;;2.88;1.23;;;;;;;;;;5043626;28;20025;-32
2023/11/19 06:25:32;;;;;;;5.75;1.60;;;;;;;;;;5043164;28;20025;-32
2023/11/19 06:27:59;;;;;;;5.72;1.65;;;;;;;;;;5044873;28;20040;-32
2023/11/19 06:30:28;;;;;;;6.50;1.70;;;;;;;;;;5043533;28;20053;-32
2023/11/19 06:32:55;;;;;;;6.82;1.60;;;;;;;;;;5042764;28;20052;-33
2023/11/19 06:35:22;;;;;;;5.90;1.63;;;;;;;;;;5042842;28;20369;-33
2023/11/19 06:37:49;;;;;;;7.95;1.40;;;;;;;;;;5043470;28;20467;-32
2023/11/19 06:40:16;;;;;;;6.00;1.60;;;;;;;;;;5044606;28;20433;-32
2023/11/19 06:42:43;;;;;;;2.75;1.30;;;;;;;;;;5042938;28;20029;-32
2023/11/19 06:45:10;;;;;;;7.55;1.77;;;;;;;;;;5043197;28;20039;-32
2023/11/19 06:47:37;;;;;;;6.32;1.70;;;;;;;;;;5044066;28;20531;-32
2023/11/19 06:50:05;;;;;;;4.82;1.40;;;;;;;;;;5042836;28;20021;-32
2023/11/19 06:52:32;;;;;;;6.68;1.67;;;;;;;;;;5042829;28;20391;-32
2023/11/19 06:54:59;;;;;;;4.65;1.50;;;;;;;;;;5044086;28;20029;-32
2023/11/19 06:57:28;;;;;;;4.20;1.30;;;;;;;;;;5043125;28;20110;-32
2023/11/19 06:59:55;;;;;;;3.55;1.65;;;;;;;;;;5042520;28;20030;-32
2023/11/19 07:02:22;;;;;;;5.40;1.50;;;;;;;;;;5041616;28;20025;-32
2023/11/19 07:04:49;;;;;;;5.32;1.50;;;;;;;;;;5043009;28;20123;-32
2023/11/19 07:07:16;;;;;;;5.18;1.60;;;;;;;;;;5026151;28;20908;-32
2023/11/19 07:09:42;;;;;;;6.65;1.70;;;;;;;;;;5042193;28;20132;-32
2023/11/19 07:12:10;;;;;;;3.17;1.45;;;;;;;;;;5041546;28;20123;-32
2023/11/19 07:14:37;;;;;;;9.45;2.05;;;;;;;;;;5043801;28;20021;-33
2023/11/19 07:17:04;;;;;;;4.78;1.83;;;;;;;;;;5042353;28;20026;-32
2023/11/19 07:19:31;;;;;;;7.78;1.67;;;;;;;;;;5042389;28;20444;-32
2023/11/19 07:21:58;;;;;;;5.32;1.63;;;;;;;;;;5043676;28;20052;-32
2023/11/19 07:24:28;;;;;;;3.78;1.40;;;;;;;;;;5042209;28;20030;-32
2023/11/19 07:26:55;;;;;;;4.72;1.20;;;;;;;;;;5041768;28;20033;-32
2023/11/19 07:29:22;;;;;;;5.13;1.50;;;;;;;;;;5041854;28;20037;-32
2023/11/19 07:31:51;;;;;;;6.28;1.70;;;;;;;;;;5042346;28;20041;-32
2023/11/19 07:34:19;;;;;;;7.00;1.90;;;;;;;;;;5043413;28;20028;-32
2023/11/19 07:36:47;;;;;;;6.20;1.58;;;;;;;;;;5041768;28;20038;-32
2023/11/19 07:39:14;;;;;;;6.25;1.30;;;;;;;;;;5041746;28;20090;-32
2023/11/19 07:41:41;;;;;;;4.13;1.58;;;;;;;;;;5043769;28;20114;-32
2023/11/19 07:44:08;;;;;;;5.68;1.38;;;;;;;;;;5042247;28;20044;-32
2023/11/19 07:46:35;;;;;;;3.45;1.38;;;;;;;;;;5041415;28;20029;-32
2023/11/19 07:49:02;;;;;;;3.22;1.30;;;;;;;;;;5041480;28;20423;-32
2023/11/19 07:51:29;;;;;;;4.93;1.50;;;;;;;;;;5041843;28;20443;-32
2023/11/19 07:53:56;;;;;;;3.88;1.27;;;;;;;;;;5043108;28;20399;-33
2023/11/19 07:56:23;;;;;;;3.42;1.23;;;;;;;;;;5041376;28;20124;-32
2023/11/19 07:58:50;;;;;;;6.88;1.50;;;;;;;;;;5041921;28;20426;-32
2023/11/19 08:01:17;;;;;;;8.52;1.73;;;;;;;;;;5043068;28;20845;-32
2023/11/19 08:03:44;;;;;;;5.82;1.42;;;;;;;;;;5041382;28;20479;-32
2023/11/19 08:06:11;;;;;;;3.78;1.27;;;;;;;;;;5041724;28;20079;-32
2023/11/19 08:08:38;;;;;;;4.22;1.38;;;;;;;;;;5042886;28;20032;-32
2023/11/19 08:11:06;;;;;;;4.97;1.23;;;;;;;;;;5023138;28;20672;-32
2023/11/19 08:13:33;;;;;;;4.10;1.20;;;;;;;;;;5040357;28;20115;-32
2023/11/19 08:15:59;;;;;;;5.72;1.40;;;;;;;;;;5042765;28;20109;-33
2023/11/19 08:18:26;;;;;;;2.38;1.05;;;;;;;;;;5041405;28;20820;-32
2023/11/19 08:20:53;;;;;;;4.28;1.30;;;;;;;;;;5041209;28;20036;-32
2023/11/19 08:23:23;;;;;;;5.35;1.38;;;;;;;;;;5042654;28;20566;-32
2023/11/19 08:25:50;;;;;;;4.45;1.30;;;;;;;;;;5041731;28;20017;-32
2023/11/19 08:28:17;;;;;;;4.85;1.25;;;;;;;;;;5040457;28;20033;-32
2023/11/19 08:30:44;;;;;;;2.22;1.08;;;;;;;;;;5040847;28;20041;-32
2023/11/19 08:33:11;;;;;;;4.03;1.48;;;;;;;;;;5041218;28;20028;-32
2023/11/19 08:35:38;;;;;;;3.40;1.20;;;;;;;;;;5042358;28;20115;-32
2023/11/19 08:38:05;;;;;;;4.47;1.10;;;;;;;;;;5040866;28;20467;-32
2023/11/19 08:40:32;;;;;;;5.03;1.45;;;;;;;;;;5041132;28;20029;-32
2023/11/19 08:42:59;;;;;;;4.20;1.25;;;;;;;;;;5042290;28;20048;-32
2023/11/19 08:45:26;;;;;;;3.38;1.30;;;;;;;;;;5040703;28;20079;-32
2023/11/19 08:47:53;;;;;;;6.20;1.35;;;;;;;;;;5040656;28;20049;-32
2023/11/19 08:50:20;;;;;;;4.32;1.40;;;;;;;;;;5042066;28;20479;-32
2023/11/19 08:52:47;;;;;;;5.28;1.33;;;;;;;;;;5041706;28;20033;-32
2023/11/19 08:55:14;;;;;;;4.70;1.33;;;;;;;;;;5041793;28;20605;-32
2023/11/19 08:57:41;;;;;;;2.42;1.08;;;;;;;;;;5040037;28;20049;-32
2023/11/19 09:00:08;;;;;;;3.50;1.10;;;;;;;;;;5041258;28;20051;-32
2023/11/19 09:02:38;;;;;;;4.57;1.20;;;;;;;;;;5041701;28;20048;-32
2023/11/19 09:05:07;;;;;;;4.20;0.82;;;;;;;;;;5040402;28;20495;-32
2023/11/19 09:07:34;;;;;;;2.58;1.17;;;;;;;;;;5040363;28;20029;-32
2023/11/19 09:10:01;;;;;;;4.13;1.00;;;;;;;;;;5041898;28;20051;-32
2023/11/19 09:12:28;;;;;;;4.45;1.10;;;;;;;;;;5040737;28;20046;-32
2023/11/19 09:14:55;;;;;;;5.65;1.20;;;;;;;;;;5040044;28;20061;-32
2023/11/19 09:17:22;;;;;;;2.53;1.10;;;;;;;;;;5041882;28;20398;-32
2023/11/19 09:19:49;;;;;;;3.88;1.10;;;;;;;;;;5040689;28;20029;-32
2023/11/19 09:22:16;;;;;;;6.93;1.17;;;;;;;;;;5039995;28;20025;-32
2023/11/19 09:24:44;;;;;;;5.20;1.10;;;;;;;;;;5042108;28;20029;-32
2023/11/19 09:27:11;;;;;;;3.80;1.08;;;;;;;;;;5048465;28;20116;-32
2023/11/19 09:29:38;;;;;;;4.00;1.15;;;;;;;;;;5046314;28;20037;-32
2023/11/19 09:32:05;;;;;;;5.75;1.20;;;;;;;;;;5048084;28;20127;-32
2023/11/19 09:34:32;;;;;;;2.40;1.10;;;;;;;;;;5047558;28;20045;-32
2023/11/19 09:36:59;;;;;;;3.25;0.93;;;;;;;;;;5046108;28;20021;-32
2023/11/19 09:39:26;;;;;;;9.05;1.75;;;;;;;;;;5047842;28;20029;-32
2023/11/19 09:41:53;;;;;;;2.92;0.98;;;;;;;;;;5047705;28;20029;-32
2023/11/19 09:44:20;;;;;;;3.95;1.25;;;;;;;;;;5046037;28;20040;-32
2023/11/19 09:46:48;;;;;;;3.88;1.20;;;;;;;;;;5047395;28;20126;-32
2023/11/19 09:49:20;;;;;;;4.57;1.13;;;;;;;;;;5047855;28;20511;-32
2023/11/19 09:51:47;;;;;;;4.93;1.10;;;;;;;;;;5046700;28;20045;-32
2023/11/19 09:54:14;;;;;;;4.72;1.30;;;;;;;;;;5046554;28;20028;-32
2023/11/19 09:56:41;;;;;;;5.82;1.20;;;;;;;;;;5048131;28;20064;-32
2023/11/19 09:59:12;;;;;;;5.07;1.38;;;;;;;;;;5046758;28;20025;-32
2023/11/19 10:01:39;;;;;;;4.20;1.20;;;;;;;;;;5046107;28;20069;-32
2023/11/19 10:04:07;;;;;;;4.50;0.98;;;;;;;;;;5047564;28;20041;-32
2023/11/19 10:06:34;;;;;;;2.50;0.90;;;;;;;;;;5047605;28;20044;-32
2023/11/19 10:09:02;;;;;;;4.55;1.20;;;;;;;;;;5045976;28;20033;-32
2023/11/19 10:11:31;;;;;;;4.53;1.10;;;;;;;;;;5046767;28;20482;-32
2023/11/19 10:14:00;;;;;;;4.15;1.17;;;;;;;;;;5047936;28;20447;-33
2023/11/19 10:16:31;;;;;;;2.80;0.90;;;;;;;;;;5046523;28;20103;-32
2023/11/19 10:18:58;;;;;;;3.35;1.30;;;;;;;;;;5045851;28;20037;-33
2023/11/19 10:21:27;;;;;;;3.50;1.27;;;;;;;;;;5047724;28;20032;-32
2023/11/19 10:23:59;;;;;;;4.80;1.10;;;;;;;;;;5047360;28;20060;-32
2023/11/19 10:26:27;;;;;;;3.83;1.05;;;;;;;;;;5046372;28;20513;-32
2023/11/19 10:28:54;;;;;;;4.32;1.02;;;;;;;;;;5046416;28;20078;-32
2023/11/19 10:31:24;;;;;;;4.30;1.02;;;;;;;;;;5047761;28;20128;-32
2023/11/19 10:33:52;;;;;;;4.35;1.25;;;;;;;;;;5046732;28;20033;-32
2023/11/19 10:36:19;;;;;;;4.05;1.00;;;;;;;;;;5043339;28;20069;-33
2023/11/19 10:38:56;;;;;;;7.63;1.38;;;;;;;;;;5044288;28;20063;-32
2023/11/19 10:41:30;;;;;;;7.22;1.20;;;;;;;;;;5044668;28;20028;-32
2023/11/19 10:43:57;;;;;;;3.13;1.00;;;;;;;;;;5042596;28;20045;-32
2023/11/19 10:46:37;;;;;;;3.25;0.93;;;;;;;;;;5026511;28;20364;-32
2023/11/19 10:49:04;;;;;;;2.50;0.95;;;;;;;;;;5042215;28;20041;-32
2023/11/19 10:51:32;;;;;;;4.30;0.80;;;;;;;;;;5042832;28;20091;-32
2023/11/19 10:54:07;;;;;;;2.80;0.60;;;;;;;;;;5044172;28;20037;-32
2023/11/19 10:56:34;;;;;;;6.18;0.80;;;;;;;;;;5042957;28;20025;-32
2023/11/19 10:59:03;;;;;;;3.70;0.80;;;;;;;;;;5034344;28;20044;-32
2023/11/19 11:01:34;;;;;;;2.75;0.65;;;;;;;;;;5044087;28;20441;-32
2023/11/19 11:04:01;;;;;;;5.45;0.80;;;;;;;;;;5043359;28;20037;-32
2023/11/19 11:06:28;;;;;;;3.95;0.80;;;;;;;;;;5041971;28;20037;-32
2023/11/19 11:08:56;;;;;;;4.55;0.80;;;;;;;;;;5043673;28;20075;-32
2023/11/19 11:11:23;;;;;;;2.88;0.70;;;;;;;;;;5049116;28;20040;-31
2023/11/19 11:13:52;;;;;;;3.42;0.63;;;;;;;;;;5053539;28;20024;-31
2023/11/19 11:16:21;;;;;;;2.45;0.68;;;;;;;;;;5053446;28;20033;-32
2023/11/19 11:18:51;;;;;;;1.35;0.63;;;;;;;;;;5053618;28;20043;-32
2023/11/19 11:21:22;;;;;;;12.13;0.90;;;;;;;;;;5052168;28;20043;-33
2023/11/19 11:23:58;;;;;;;6.15;0.90;;;;;;;;;;5042987;28;20025;-32
2023/11/19 11:26:34;;;;;;;5.60;1.35;;;;;;;;;;5041841;28;20037;-33
2023/11/19 11:29:04;;;;;;;5.05;1.15;;;;;;;;;;5041472;28;20505;-32
2023/11/19 11:31:37;;;;;;;5.47;1.10;;;;;;;;;;5042603;28;20036;-32
2023/11/19 11:34:32;;;;;;;12.02;1.67;;;;;;;;;;5041529;28;20574;-32
2023/11/19 11:36:59;;;;;;;10.68;1.10;;;;;;;;;;5049342;28;20029;-32
2023/11/19 11:39:30;;;;;;;3.17;0.98;;;;;;;;;;5034425;28;20056;-32
2023/11/19 11:42:20;;;;;;;8.70;0.98;;;;;;;;;;5032967;28;20037;-32
2023/11/19 11:45:08;;;;;;;5.47;0.70;;;;;;;;;;5023021;28;20057;-33
2023/11/19 11:47:49;;;;;;;3.85;0.80;;;;;;;;;;5032839;28;20049;-33
2023/11/19 11:50:18;;;;;;;6.20;0.85;;;;;;;;;;5032950;28;20053;-32
2023/11/19 11:53:01;;;;;;;1.75;0.70;;;;;;;;;;5033205;28;20041;-32
2023/11/19 11:55:38;;;;;;;2.97;0.95;;;;;;;;;;5032707;28;20038;-33
2023/11/19 11:58:06;;;;;;;4.65;0.80;;;;;;;;;;5032904;28;20021;-33
2023/11/19 12:00:34;;;;;;;4.25;0.70;;;;;;;;;;5032909;28;20037;-33
2023/11/19 12:03:01;;;;;;;3.45;0.80;;;;;;;;;;5032654;28;20030;-32
2023/11/19 12:05:28;;;;;;;6.15;1.20;;;;;;;;;;5032844;28;20095;-32
2023/11/19 12:08:01;;;;;;;8.35;0.90;;;;;;;;;;5032611;28;20027;-32
2023/11/19 12:10:48;;;;;;;15.27;2.30;;;;;;;;;;5032406;28;20042;-32
2023/11/19 12:13:18;;;;;;;12.63;1.77;;;;;;;;;;5032507;28;20041;-33
2023/11/19 12:16:08;;;;;;;9.77;1.30;;;;;;;;;;5032373;28;20112;-33
2023/11/19 12:18:35;;;;;;;3.30;0.90;;;;;;;;;;5022067;28;20045;-33
2023/11/19 12:21:02;;;;;;;5.57;0.75;;;;;;;;;;5032508;28;20029;-34
2023/11/19 12:23:33;;;;;;;6.22;1.27;;;;;;;;;;5032311;28;20754;-33
2023/11/19 12:26:00;;;;;;;4.78;1.00;;;;;;;;;;5032289;28;20072;-34
2023/11/19 12:28:27;;;;;;;5.03;1.63;;;;;;;;;;5032378;28;20026;-34
2023/11/19 12:30:54;;;;;;;4.85;1.10;;;;;;;;;;5040165;28;20090;-33
2023/11/19 12:33:21;;;;;;;7.03;1.30;;;;;;;;;;5038712;28;20446;-33
2023/11/19 12:35:49;;;;;;;6.70;1.27;;;;;;;;;;5051290;28;20040;-33
2023/11/19 12:38:23;;;;;;;7.00;1.35;;;;;;;;;;5051867;28;20044;-33
2023/11/19 12:41:06;;;;;;;5.90;1.10;;;;;;;;;;5045311;28;20115;-33
2023/11/19 12:43:37;;;;;;;12.50;1.40;;;;;;;;;;5047659;28;20041;-35
2023/11/19 12:46:05;;;;;;;6.18;1.20;;;;;;;;;;5043082;28;20037;-35
2023/11/19 12:48:32;;;;;;;9.90;1.40;;;;;;;;;;5038986;28;20081;-36
2023/11/19 12:51:01;;;;;;;6.20;1.20;;;;;;;;;;5040395;28;20613;-36
2023/11/19 12:53:48;;;;;;;16.20;1.40;;;;;;;;;;5040782;28;20080;-35
2023/11/19 12:56:15;;;;;;;6.07;1.20;;;;;;;;;;5038680;28;20099;-36
2023/11/19 12:58:42;;;;;;;7.65;1.52;;;;;;;;;;5048650;28;20548;-35
2023/11/19 13:01:10;;;;;;;10.75;1.50;;;;;;;;;;5044220;28;20036;-35
2023/11/19 13:03:38;;;;;;;13.55;1.55;;;;;;;;;;5039904;28;20032;-34
2023/11/19 13:06:07;;;;;;;9.63;1.20;;;;;;;;;;5029525;28;20055;-34
2023/11/19 13:08:38;;;;;;;13.02;1.48;;;;;;;;;;5028270;28;20038;-34
2023/11/19 13:11:06;;;;;;;9.32;1.13;;;;;;;;;;5011724;28;20454;-34
2023/11/19 13:13:33;;;;;;;7.22;1.48;;;;;;;;;;5029616;28;20472;-34
2023/11/19 13:16:06;;;;;;;7.68;1.30;;;;;;;;;;5029616;28;20076;-34
2023/11/19 13:18:33;;;;;;;11.00;1.10;;;;;;;;;;5028174;28;20542;-33
2023/11/19 13:21:01;;;;;;;6.50;1.33;;;;;;;;;;5029664;28;20415;-34
2023/11/19 13:23:28;;;;;;;6.22;1.23;;;;;;;;;;5029519;28;20033;-34
2023/11/19 13:25:55;;;;;;;13.90;2.00;;;;;;;;;;5028556;28;20041;-33
2023/11/19 13:28:22;;;;;;;13.27;1.90;;;;;;;;;;5026327;28;20029;-33
2023/11/19 13:30:49;;;;;;;10.95;1.20;;;;;;;;;;5027403;28;20033;-32
2023/11/19 13:33:17;;;;;;;9.50;1.40;;;;;;;;;;5029451;28;20734;-33
2023/11/19 13:35:44;;;;;;;12.88;1.30;;;;;;;;;;5031327;28;20109;-33
2023/11/19 13:38:11;;;;;;;7.78;1.35;;;;;;;;;;5050722;28;20057;-33
2023/11/19 13:40:39;;;;;;;28.77;2.83;;;;;;;;;;5055245;28;20037;-34
2023/11/19 13:43:07;;;;;;;9.73;1.88;;;;;;;;;;5050456;28;20382;-33
2023/11/19 13:45:34;;;;;;;14.18;1.90;;;;;;;;;;5050490;28;20036;-33
2023/11/19 13:48:01;;;;;;;12.93;1.42;;;;;;;;;;5050244;28;20041;-33
2023/11/19 13:50:29;;;;;;;10.55;1.30;;;;;;;;;;5050157;28;20091;-33
2023/11/19 13:52:56;;;;;;;9.95;1.40;;;;;;;;;;5050275;28;20082;-33
2023/11/19 13:55:23;;;;;;;18.30;1.70;;;;;;;;;;5050656;28;20076;-33
2023/11/19 13:57:50;;;;;;;7.80;1.40;;;;;;;;;;5039221;28;20029;-33
2023/11/19 14:00:18;;;;;;;21.58;2.55;;;;;;;;;;5049455;28;20025;-34
2023/11/19 14:02:47;;;;;;;11.45;1.70;;;;;;;;;;5041173;28;20034;-33
2023/11/19 14:05:17;;;;;;;8.13;1.40;;;;;;;;;;5049420;28;20083;-33
2023/11/19 14:07:44;;;;;;;13.27;2.20;;;;;;;;;;5050147;28;20028;-33
2023/11/19 14:10:12;;;;;;;11.82;2.08;;;;;;;;;;5050960;28;20037;-34
2023/11/19 14:12:39;;;;;;;7.93;1.63;;;;;;;;;;5060104;28;20037;-33
2023/11/19 14:15:07;;;;;;;13.93;1.80;;;;;;;;;;5054111;28;20044;-33
2023/11/19 14:17:34;;;;;;;11.68;1.70;;;;;;;;;;5053897;28;20079;-33
2023/11/19 14:20:02;;;;;;;13.50;1.75;;;;;;;;;;5053970;28;20021;-33
2023/11/19 14:22:30;;;;;;;11.73;1.77;;;;;;;;;;5053994;28;20027;-34
2023/11/19 14:24:57;;;;;;;9.68;1.67;;;;;;;;;;5050569;28;20032;-34
2023/11/19 14:27:24;;;;;;;16.35;2.42;;;;;;;;;;5054067;28;20174;-33
2023/11/19 14:29:51;;;;;;;18.77;2.35;;;;;;;;;;5051676;28;20115;-34
2023/11/19 14:32:18;;;;;;;22.08;2.38;;;;;;;;;;5054079;28;20182;-34
2023/11/19 14:34:45;;;;;;;16.50;2.20;;;;;;;;;;5041015;28;20154;-34
2023/11/19 14:37:12;;;;;;;15.15;2.03;;;;;;;;;;5053823;28;20395;-34
2023/11/19 14:39:39;;;;;;;12.38;2.00;;;;;;;;;;5042501;28;20044;-34
2023/11/19 14:42:06;;;;;;;7.95;1.90;;;;;;;;;;5064152;28;20067;-34
2023/11/19 14:44:33;;;;;;;13.55;2.13;;;;;;;;;;5043767;28;20036;-33